sensor_id;sensor_type;location;lat;lon;timestamp;temperature;humidity
58993;DHT22;44782;0.000;0.000;2023-04-25T00:01:51;16.30;55.70
58993;DHT22;44782;0.000;0.000;2023-04-25T00:04:08;16.30;55.70
58993;DHT22;44782;0.000;0.000;2023-04-25T00:06:23;16.30;55.70
58993;DHT22;44782;0.000;0.000;2023-04-25T00:08:41;16.30;55.60
58993;DHT22;44782;0.000;0.000;2023-04-25T00:10:58;16.30;55.60
58993;DHT22;44782;0.000;0.000;2023-04-25T00:13:14;16.30;55.60
58993;DHT22;44782;0.000;0.000;2023-04-25T00:15:32;16.30;55.70
58993;DHT22;44782;0.000;0.000;2023-04-25T00:17:48;16.30;55.60
58993;DHT22;44782;0.000;0.000;2023-04-25T00:20:05;16.30;55.60
58993;DHT22;44782;0.000;0.000;2023-04-25T00:22:21;16.20;55.50
58993;DHT22;44782;0.000;0.000;2023-04-25T00:24:37;16.20;55.50
58993;DHT22;44782;0.000;0.000;2023-04-25T00:26:53;16.30;55.60
58993;DHT22;44782;0.000;0.000;2023-04-25T00:29:09;16.20;55.50
58993;DHT22;44782;0.000;0.000;2023-04-25T00:31:24;16.30;55.60
58993;DHT22;44782;0.000;0.000;2023-04-25T00:33:40;16.20;55.50
58993;DHT22;44782;0.000;0.000;2023-04-25T00:35:56;16.20;55.50
58993;DHT22;44782;0.000;0.000;2023-04-25T00:38:12;16.20;55.50
58993;DHT22;44782;0.000;0.000;2023-04-25T00:40:28;16.20;55.50
58993;DHT22;44782;0.000;0.000;2023-04-25T00:42:44;16.20;55.50
58993;DHT22;44782;0.000;0.000;2023-04-25T00:45:01;16.20;55.50
58993;DHT22;44782;0.000;0.000;2023-04-25T00:47:17;16.20;55.40
58993;DHT22;44782;0.000;0.000;2023-04-25T00:49:33;16.20;55.50
58993;DHT22;44782;0.000;0.000;2023-04-25T00:51:49;16.20;55.50
58993;DHT22;44782;0.000;0.000;2023-04-25T00:54:05;16.20;55.50
58993;DHT22;44782;0.000;0.000;2023-04-25T00:56:21;16.20;55.40
58993;DHT22;44782;0.000;0.000;2023-04-25T00:58:37;16.20;55.50
58993;DHT22;44782;0.000;0.000;2023-04-25T01:00:53;16.20;55.40
58993;DHT22;44782;0.000;0.000;2023-04-25T01:03:11;16.20;55.40
58993;DHT22;44782;0.000;0.000;2023-04-25T01:05:27;16.20;55.50
58993;DHT22;44782;0.000;0.000;2023-04-25T01:07:43;16.20;55.40
58993;DHT22;44782;0.000;0.000;2023-04-25T01:09:59;16.10;55.40
58993;DHT22;44782;0.000;0.000;2023-04-25T01:12:15;16.10;55.40
58993;DHT22;44782;0.000;0.000;2023-04-25T01:14:31;16.10;55.40
58993;DHT22;44782;0.000;0.000;2023-04-25T01:16:47;16.10;55.40
58993;DHT22;44782;0.000;0.000;2023-04-25T01:19:09;16.10;55.40
58993;DHT22;44782;0.000;0.000;2023-04-25T01:21:26;16.10;55.30
58993;DHT22;44782;0.000;0.000;2023-04-25T01:23:45;16.10;55.40
58993;DHT22;44782;0.000;0.000;2023-04-25T01:26:01;16.10;55.30
58993;DHT22;44782;0.000;0.000;2023-04-25T01:28:17;16.10;55.40
58993;DHT22;44782;0.000;0.000;2023-04-25T01:30:32;16.10;55.40
58993;DHT22;44782;0.000;0.000;2023-04-25T01:32:49;16.10;55.40
58993;DHT22;44782;0.000;0.000;2023-04-25T01:35:08;16.10;55.30
58993;DHT22;44782;0.000;0.000;2023-04-25T01:37:24;16.10;55.30
58993;DHT22;44782;0.000;0.000;2023-04-25T01:39:40;16.10;55.30
58993;DHT22;44782;0.000;0.000;2023-04-25T01:41:58;16.10;55.30
58993;DHT22;44782;0.000;0.000;2023-04-25T01:44:14;16.10;55.30
58993;DHT22;44782;0.000;0.000;2023-04-25T01:46:31;16.10;55.30
58993;DHT22;44782;0.000;0.000;2023-04-25T01:48:46;16.10;55.30
58993;DHT22;44782;0.000;0.000;2023-04-25T01:51:02;16.10;55.30
58993;DHT22;44782;0.000;0.000;2023-04-25T01:53:18;16.10;55.30
58993;DHT22;44782;0.000;0.000;2023-04-25T01:55:34;16.10;55.30
58993;DHT22;44782;0.000;0.000;2023-04-25T01:57:50;16.10;55.30
58993;DHT22;44782;0.000;0.000;2023-04-25T02:00:06;16.10;55.20
58993;DHT22;44782;0.000;0.000;2023-04-25T02:02:22;16.10;55.20
58993;DHT22;44782;0.000;0.000;2023-04-25T02:04:38;16.10;55.20
58993;DHT22;44782;0.000;0.000;2023-04-25T02:06:53;16.10;55.20
58993;DHT22;44782;0.000;0.000;2023-04-25T02:09:09;16.00;55.20
58993;DHT22;44782;0.000;0.000;2023-04-25T02:11:25;16.00;55.20
58993;DHT22;44782;0.000;0.000;2023-04-25T02:13:40;16.00;55.10
58993;DHT22;44782;0.000;0.000;2023-04-25T02:15:57;16.00;55.20
58993;DHT22;44782;0.000;0.000;2023-04-25T02:18:12;16.00;55.20
58993;DHT22;44782;0.000;0.000;2023-04-25T02:20:29;16.00;55.10
58993;DHT22;44782;0.000;0.000;2023-04-25T02:22:46;16.00;55.10
58993;DHT22;44782;0.000;0.000;2023-04-25T02:25:02;16.00;55.10
58993;DHT22;44782;0.000;0.000;2023-04-25T02:27:20;16.00;55.10
58993;DHT22;44782;0.000;0.000;2023-04-25T02:29:35;16.00;55.10
58993;DHT22;44782;0.000;0.000;2023-04-25T02:31:51;16.00;55.10
58993;DHT22;44782;0.000;0.000;2023-04-25T02:34:07;16.00;55.20
58993;DHT22;44782;0.000;0.000;2023-04-25T02:36:23;16.00;55.10
58993;DHT22;44782;0.000;0.000;2023-04-25T02:38:39;16.00;55.10
58993;DHT22;44782;0.000;0.000;2023-04-25T02:40:55;16.00;55.20
58993;DHT22;44782;0.000;0.000;2023-04-25T02:43:10;16.00;55.10
58993;DHT22;44782;0.000;0.000;2023-04-25T02:45:26;15.90;55.10
58993;DHT22;44782;0.000;0.000;2023-04-25T02:47:42;16.00;55.10
58993;DHT22;44782;0.000;0.000;2023-04-25T02:49:58;16.00;55.20
58993;DHT22;44782;0.000;0.000;2023-04-25T02:52:14;16.00;55.10
58993;DHT22;44782;0.000;0.000;2023-04-25T02:54:30;16.00;55.10
58993;DHT22;44782;0.000;0.000;2023-04-25T02:56:45;16.00;55.10
58993;DHT22;44782;0.000;0.000;2023-04-25T02:59:01;16.00;55.10
58993;DHT22;44782;0.000;0.000;2023-04-25T03:01:17;16.00;55.00
58993;DHT22;44782;0.000;0.000;2023-04-25T03:03:32;16.00;55.00
58993;DHT22;44782;0.000;0.000;2023-04-25T03:05:51;16.10;55.10
58993;DHT22;44782;0.000;0.000;2023-04-25T03:08:07;16.10;55.00
58993;DHT22;44782;0.000;0.000;2023-04-25T03:10:23;16.10;55.00
58993;DHT22;44782;0.000;0.000;2023-04-25T03:12:39;16.10;55.00
58993;DHT22;44782;0.000;0.000;2023-04-25T03:14:54;16.10;55.00
58993;DHT22;44782;0.000;0.000;2023-04-25T03:17:10;16.10;55.10
58993;DHT22;44782;0.000;0.000;2023-04-25T03:19:25;16.10;55.50
58993;DHT22;44782;0.000;0.000;2023-04-25T03:21:41;16.10;54.90
58993;DHT22;44782;0.000;0.000;2023-04-25T03:23:57;16.10;54.90
58993;DHT22;44782;0.000;0.000;2023-04-25T03:26:13;16.10;54.80
58993;DHT22;44782;0.000;0.000;2023-04-25T03:28:28;16.10;54.90
58993;DHT22;44782;0.000;0.000;2023-04-25T03:30:44;16.20;54.80
58993;DHT22;44782;0.000;0.000;2023-04-25T03:33:00;16.10;54.80
58993;DHT22;44782;0.000;0.000;2023-04-25T03:35:16;16.10;54.80
58993;DHT22;44782;0.000;0.000;2023-04-25T03:37:31;16.10;54.80
58993;DHT22;44782;0.000;0.000;2023-04-25T03:39:47;16.10;54.80
58993;DHT22;44782;0.000;0.000;2023-04-25T03:42:02;16.10;54.80
58993;DHT22;44782;0.000;0.000;2023-04-25T03:44:18;16.10;54.80
58993;DHT22;44782;0.000;0.000;2023-04-25T03:46:34;16.10;54.80
58993;DHT22;44782;0.000;0.000;2023-04-25T03:48:49;16.10;54.80
58993;DHT22;44782;0.000;0.000;2023-04-25T03:51:05;16.10;54.80
58993;DHT22;44782;0.000;0.000;2023-04-25T03:53:21;16.10;54.80
58993;DHT22;44782;0.000;0.000;2023-04-25T03:55:36;16.10;54.70
58993;DHT22;44782;0.000;0.000;2023-04-25T03:57:52;16.10;54.80
58993;DHT22;44782;0.000;0.000;2023-04-25T04:00:08;16.10;55.40
58993;DHT22;44782;0.000;0.000;2023-04-25T04:02:25;16.10;54.70
58993;DHT22;44782;0.000;0.000;2023-04-25T04:04:40;16.10;54.80
58993;DHT22;44782;0.000;0.000;2023-04-25T04:06:56;16.10;54.80
58993;DHT22;44782;0.000;0.000;2023-04-25T04:09:11;16.10;54.80
58993;DHT22;44782;0.000;0.000;2023-04-25T04:11:27;16.10;54.70
58993;DHT22;44782;0.000;0.000;2023-04-25T04:13:43;16.10;54.70
58993;DHT22;44782;0.000;0.000;2023-04-25T04:15:59;16.10;54.70
58993;DHT22;44782;0.000;0.000;2023-04-25T04:18:14;16.10;54.80
58993;DHT22;44782;0.000;0.000;2023-04-25T04:20:30;16.10;54.70
58993;DHT22;44782;0.000;0.000;2023-04-25T04:22:46;16.10;54.70
58993;DHT22;44782;0.000;0.000;2023-04-25T04:25:02;16.10;54.70
58993;DHT22;44782;0.000;0.000;2023-04-25T04:27:18;16.10;54.70
58993;DHT22;44782;0.000;0.000;2023-04-25T04:29:34;16.10;54.70
58993;DHT22;44782;0.000;0.000;2023-04-25T04:31:50;16.10;54.70
58993;DHT22;44782;0.000;0.000;2023-04-25T04:34:07;16.10;54.70
58993;DHT22;44782;0.000;0.000;2023-04-25T04:36:24;16.10;54.70
58993;DHT22;44782;0.000;0.000;2023-04-25T04:38:41;16.00;54.70
58993;DHT22;44782;0.000;0.000;2023-04-25T04:40:57;16.00;54.70
58993;DHT22;44782;0.000;0.000;2023-04-25T04:43:13;16.00;54.70
58993;DHT22;44782;0.000;0.000;2023-04-25T04:45:32;16.10;54.70
58993;DHT22;44782;0.000;0.000;2023-04-25T04:47:49;16.00;54.70
58993;DHT22;44782;0.000;0.000;2023-04-25T04:50:06;16.00;54.70
58993;DHT22;44782;0.000;0.000;2023-04-25T04:52:23;16.00;54.70
58993;DHT22;44782;0.000;0.000;2023-04-25T04:54:39;16.00;54.80
58993;DHT22;44782;0.000;0.000;2023-04-25T04:56:55;16.00;54.70
58993;DHT22;44782;0.000;0.000;2023-04-25T04:59:11;16.00;54.70
58993;DHT22;44782;0.000;0.000;2023-04-25T05:01:27;16.00;54.70
58993;DHT22;44782;0.000;0.000;2023-04-25T05:03:42;16.00;54.70
58993;DHT22;44782;0.000;0.000;2023-04-25T05:05:58;16.00;54.70
58993;DHT22;44782;0.000;0.000;2023-04-25T05:08:14;16.00;54.60
58993;DHT22;44782;0.000;0.000;2023-04-25T05:10:29;15.90;55.30
58993;DHT22;44782;0.000;0.000;2023-04-25T05:12:45;16.00;54.60
58993;DHT22;44782;0.000;0.000;2023-04-25T05:15:01;15.90;54.60
58993;DHT22;44782;0.000;0.000;2023-04-25T05:17:16;15.90;54.60
58993;DHT22;44782;0.000;0.000;2023-04-25T05:19:32;16.00;54.60
58993;DHT22;44782;0.000;0.000;2023-04-25T05:21:48;16.00;54.60
58993;DHT22;44782;0.000;0.000;2023-04-25T05:24:04;16.00;54.60
58993;DHT22;44782;0.000;0.000;2023-04-25T05:26:19;15.90;54.60
58993;DHT22;44782;0.000;0.000;2023-04-25T05:28:36;15.90;54.60
58993;DHT22;44782;0.000;0.000;2023-04-25T05:30:52;15.90;54.50
58993;DHT22;44782;0.000;0.000;2023-04-25T05:33:08;15.90;54.60
58993;DHT22;44782;0.000;0.000;2023-04-25T05:35:24;15.90;54.50
58993;DHT22;44782;0.000;0.000;2023-04-25T05:37:39;15.90;54.60
58993;DHT22;44782;0.000;0.000;2023-04-25T05:39:55;15.90;54.50
58993;DHT22;44782;0.000;0.000;2023-04-25T05:42:11;15.90;54.60
58993;DHT22;44782;0.000;0.000;2023-04-25T05:44:26;15.90;54.60
58993;DHT22;44782;0.000;0.000;2023-04-25T05:46:42;15.90;54.50
58993;DHT22;44782;0.000;0.000;2023-04-25T05:48:58;15.80;54.50
58993;DHT22;44782;0.000;0.000;2023-04-25T05:51:13;15.90;54.60
58993;DHT22;44782;0.000;0.000;2023-04-25T05:53:29;15.80;54.50
58993;DHT22;44782;0.000;0.000;2023-04-25T05:55:45;15.90;54.60
58993;DHT22;44782;0.000;0.000;2023-04-25T05:58:00;15.80;54.50
58993;DHT22;44782;0.000;0.000;2023-04-25T06:00:16;15.80;54.50
58993;DHT22;44782;0.000;0.000;2023-04-25T06:02:31;15.80;54.60
58993;DHT22;44782;0.000;0.000;2023-04-25T06:04:49;15.80;54.60
58993;DHT22;44782;0.000;0.000;2023-04-25T06:07:05;15.80;54.60
58993;DHT22;44782;0.000;0.000;2023-04-25T06:09:20;15.80;54.70
58993;DHT22;44782;0.000;0.000;2023-04-25T06:11:36;15.80;54.70
58993;DHT22;44782;0.000;0.000;2023-04-25T06:13:52;15.80;54.70
58993;DHT22;44782;0.000;0.000;2023-04-25T06:16:07;15.80;54.70
58993;DHT22;44782;0.000;0.000;2023-04-25T06:18:23;15.80;54.70
58993;DHT22;44782;0.000;0.000;2023-04-25T06:20:39;15.80;54.70
58993;DHT22;44782;0.000;0.000;2023-04-25T06:22:55;15.80;55.40
58993;DHT22;44782;0.000;0.000;2023-04-25T06:25:10;15.70;54.60
58993;DHT22;44782;0.000;0.000;2023-04-25T06:27:26;15.70;54.60
58993;DHT22;44782;0.000;0.000;2023-04-25T06:29:41;15.80;54.70
58993;DHT22;44782;0.000;0.000;2023-04-25T06:31:57;15.70;54.70
58993;DHT22;44782;0.000;0.000;2023-04-25T06:34:13;15.70;54.60
58993;DHT22;44782;0.000;0.000;2023-04-25T06:36:28;15.70;54.60
58993;DHT22;44782;0.000;0.000;2023-04-25T06:38:44;15.70;54.60
58993;DHT22;44782;0.000;0.000;2023-04-25T06:40:59;15.70;54.60
58993;DHT22;44782;0.000;0.000;2023-04-25T06:43:15;15.70;54.70
58993;DHT22;44782;0.000;0.000;2023-04-25T06:45:31;15.70;54.60
58993;DHT22;44782;0.000;0.000;2023-04-25T06:47:46;15.70;54.70
58993;DHT22;44782;0.000;0.000;2023-04-25T06:50:02;15.70;54.60
58993;DHT22;44782;0.000;0.000;2023-04-25T06:52:18;15.70;54.60
58993;DHT22;44782;0.000;0.000;2023-04-25T06:54:33;15.70;54.60
58993;DHT22;44782;0.000;0.000;2023-04-25T06:56:49;15.70;54.60
58993;DHT22;44782;0.000;0.000;2023-04-25T06:59:05;15.70;54.60
58993;DHT22;44782;0.000;0.000;2023-04-25T07:01:20;15.70;54.60
58993;DHT22;44782;0.000;0.000;2023-04-25T07:03:36;15.60;54.60
58993;DHT22;44782;0.000;0.000;2023-04-25T07:05:52;15.70;54.60
58993;DHT22;44782;0.000;0.000;2023-04-25T07:08:08;15.60;54.60
58993;DHT22;44782;0.000;0.000;2023-04-25T07:10:24;15.60;54.60
58993;DHT22;44782;0.000;0.000;2023-04-25T07:12:40;15.60;54.60
58993;DHT22;44782;0.000;0.000;2023-04-25T07:14:56;15.60;54.60
58993;DHT22;44782;0.000;0.000;2023-04-25T07:17:11;15.60;54.60
58993;DHT22;44782;0.000;0.000;2023-04-25T07:19:27;15.60;54.50
58993;DHT22;44782;0.000;0.000;2023-04-25T07:21:45;15.60;54.50
58993;DHT22;44782;0.000;0.000;2023-04-25T07:24:00;15.60;54.50
58993;DHT22;44782;0.000;0.000;2023-04-25T07:26:16;15.60;54.60
58993;DHT22;44782;0.000;0.000;2023-04-25T07:28:32;15.60;54.50
58993;DHT22;44782;0.000;0.000;2023-04-25T07:30:47;15.60;54.50
58993;DHT22;44782;0.000;0.000;2023-04-25T07:33:03;15.60;54.60
58993;DHT22;44782;0.000;0.000;2023-04-25T07:35:19;15.60;54.50
58993;DHT22;44782;0.000;0.000;2023-04-25T07:37:35;15.60;54.50
58993;DHT22;44782;0.000;0.000;2023-04-25T07:39:51;15.50;54.50
58993;DHT22;44782;0.000;0.000;2023-04-25T07:42:06;15.60;54.50
58993;DHT22;44782;0.000;0.000;2023-04-25T07:44:25;15.50;54.50
58993;DHT22;44782;0.000;0.000;2023-04-25T07:46:41;15.60;54.50
58993;DHT22;44782;0.000;0.000;2023-04-25T07:48:56;15.60;54.50
58993;DHT22;44782;0.000;0.000;2023-04-25T07:51:12;15.50;54.50
58993;DHT22;44782;0.000;0.000;2023-04-25T07:53:28;15.50;54.50
58993;DHT22;44782;0.000;0.000;2023-04-25T07:55:43;15.50;54.50
58993;DHT22;44782;0.000;0.000;2023-04-25T07:57:59;15.60;54.50
58993;DHT22;44782;0.000;0.000;2023-04-25T08:00:15;15.50;54.50
58993;DHT22;44782;0.000;0.000;2023-04-25T08:02:30;15.50;54.40
58993;DHT22;44782;0.000;0.000;2023-04-25T08:04:46;15.50;54.50
58993;DHT22;44782;0.000;0.000;2023-04-25T08:07:02;15.60;54.40
58993;DHT22;44782;0.000;0.000;2023-04-25T08:09:17;15.60;54.50
58993;DHT22;44782;0.000;0.000;2023-04-25T08:11:33;15.60;54.40
58993;DHT22;44782;0.000;0.000;2023-04-25T08:13:49;15.50;54.40
58993;DHT22;44782;0.000;0.000;2023-04-25T08:16:04;15.50;54.40
58993;DHT22;44782;0.000;0.000;2023-04-25T08:18:20;15.50;54.30
58993;DHT22;44782;0.000;0.000;2023-04-25T08:20:36;15.50;54.30
58993;DHT22;44782;0.000;0.000;2023-04-25T08:22:51;15.50;54.30
58993;DHT22;44782;0.000;0.000;2023-04-25T08:25:07;15.60;54.30
58993;DHT22;44782;0.000;0.000;2023-04-25T08:27:23;15.60;54.40
58993;DHT22;44782;0.000;0.000;2023-04-25T08:29:39;15.50;54.30
58993;DHT22;44782;0.000;0.000;2023-04-25T08:31:54;15.50;54.20
58993;DHT22;44782;0.000;0.000;2023-04-25T08:34:10;15.50;54.20
58993;DHT22;44782;0.000;0.000;2023-04-25T08:36:26;15.50;54.30
58993;DHT22;44782;0.000;0.000;2023-04-25T08:38:43;15.50;54.20
58993;DHT22;44782;0.000;0.000;2023-04-25T08:41:00;15.60;54.30
58993;DHT22;44782;0.000;0.000;2023-04-25T08:43:18;15.50;54.20
58993;DHT22;44782;0.000;0.000;2023-04-25T08:45:34;15.50;54.20
58993;DHT22;44782;0.000;0.000;2023-04-25T08:47:52;15.50;54.20
58993;DHT22;44782;0.000;0.000;2023-04-25T08:50:08;15.50;54.10
58993;DHT22;44782;0.000;0.000;2023-04-25T08:52:28;15.50;54.10
58993;DHT22;44782;0.000;0.000;2023-04-25T08:54:48;15.50;54.00
58993;DHT22;44782;0.000;0.000;2023-04-25T08:57:05;15.50;54.10
58993;DHT22;44782;0.000;0.000;2023-04-25T08:59:22;15.60;54.10
58993;DHT22;44782;0.000;0.000;2023-04-25T09:01:38;15.60;54.10
58993;DHT22;44782;0.000;0.000;2023-04-25T09:03:54;15.50;54.00
58993;DHT22;44782;0.000;0.000;2023-04-25T09:06:11;15.50;54.00
58993;DHT22;44782;0.000;0.000;2023-04-25T09:08:27;15.60;54.00
58993;DHT22;44782;0.000;0.000;2023-04-25T09:10:43;15.50;53.90
58993;DHT22;44782;0.000;0.000;2023-04-25T09:13:11;15.60;54.00
58993;DHT22;44782;0.000;0.000;2023-04-25T09:15:30;15.60;53.90
58993;DHT22;44782;0.000;0.000;2023-04-25T09:18:01;15.50;53.90
58993;DHT22;44782;0.000;0.000;2023-04-25T09:20:16;15.60;53.90
58993;DHT22;44782;0.000;0.000;2023-04-25T09:22:32;15.50;53.90
58993;DHT22;44782;0.000;0.000;2023-04-25T09:24:48;15.60;53.90
58993;DHT22;44782;0.000;0.000;2023-04-25T09:27:07;15.60;53.90
58993;DHT22;44782;0.000;0.000;2023-04-25T09:29:58;15.60;53.90
58993;DHT22;44782;0.000;0.000;2023-04-25T09:32:17;15.60;53.50
58993;DHT22;44782;0.000;0.000;2023-04-25T09:34:42;15.50;53.80
58993;DHT22;44782;0.000;0.000;2023-04-25T09:37:01;15.60;53.70
58993;DHT22;44782;0.000;0.000;2023-04-25T09:39:17;15.60;53.80
58993;DHT22;44782;0.000;0.000;2023-04-25T09:41:37;15.60;53.80
58993;DHT22;44782;0.000;0.000;2023-04-25T09:43:57;15.60;53.70
58993;DHT22;44782;0.000;0.000;2023-04-25T09:46:13;15.60;53.70
58993;DHT22;44782;0.000;0.000;2023-04-25T09:48:29;15.60;53.70
58993;DHT22;44782;0.000;0.000;2023-04-25T09:50:45;15.60;53.70
58993;DHT22;44782;0.000;0.000;2023-04-25T09:53:04;15.60;53.70
58993;DHT22;44782;0.000;0.000;2023-04-25T09:55:21;15.60;53.70
58993;DHT22;44782;0.000;0.000;2023-04-25T09:57:37;15.60;53.70
58993;DHT22;44782;0.000;0.000;2023-04-25T09:59:55;15.60;53.70
58993;DHT22;44782;0.000;0.000;2023-04-25T10:02:12;15.60;53.80
58993;DHT22;44782;0.000;0.000;2023-04-25T10:04:30;15.60;53.80
58993;DHT22;44782;0.000;0.000;2023-04-25T10:06:49;15.70;54.00
58993;DHT22;44782;0.000;0.000;2023-04-25T10:09:07;15.60;54.20
58993;DHT22;44782;0.000;0.000;2023-04-25T10:11:24;15.70;54.10
58993;DHT22;44782;0.000;0.000;2023-04-25T10:13:41;15.70;54.10
58993;DHT22;44782;0.000;0.000;2023-04-25T10:16:00;15.70;54.10
58993;DHT22;44782;0.000;0.000;2023-04-25T10:18:16;15.70;54.20
58993;DHT22;44782;0.000;0.000;2023-04-25T10:20:33;15.70;54.10
58993;DHT22;44782;0.000;0.000;2023-04-25T10:22:54;15.70;54.20
58993;DHT22;44782;0.000;0.000;2023-04-25T10:25:11;15.70;54.20
58993;DHT22;44782;0.000;0.000;2023-04-25T10:27:31;15.70;54.30
58993;DHT22;44782;0.000;0.000;2023-04-25T10:30:04;15.70;54.20
58993;DHT22;44782;0.000;0.000;2023-04-25T10:32:20;15.70;54.10
58993;DHT22;44782;0.000;0.000;2023-04-25T10:34:43;15.70;54.30
58993;DHT22;44782;0.000;0.000;2023-04-25T10:37:01;15.70;54.20
58993;DHT22;44782;0.000;0.000;2023-04-25T10:39:26;15.70;54.40
58993;DHT22;44782;0.000;0.000;2023-04-25T10:41:47;15.80;54.20
58993;DHT22;44782;0.000;0.000;2023-04-25T10:44:04;15.70;54.30
58993;DHT22;44782;0.000;0.000;2023-04-25T10:46:23;15.70;54.40
58993;DHT22;44782;0.000;0.000;2023-04-25T10:48:45;15.80;54.40
58993;DHT22;44782;0.000;0.000;2023-04-25T10:51:09;15.80;54.70
58993;DHT22;44782;0.000;0.000;2023-04-25T10:53:25;15.80;54.80
58993;DHT22;44782;0.000;0.000;2023-04-25T10:55:50;15.90;54.80
58993;DHT22;44782;0.000;0.000;2023-04-25T10:58:07;15.90;54.80
58993;DHT22;44782;0.000;0.000;2023-04-25T11:00:23;15.90;54.80
58993;DHT22;44782;0.000;0.000;2023-04-25T11:02:49;16.00;54.80
58993;DHT22;44782;0.000;0.000;2023-04-25T11:05:07;16.10;54.90
58993;DHT22;44782;0.000;0.000;2023-04-25T11:07:35;16.10;54.80
58993;DHT22;44782;0.000;0.000;2023-04-25T11:09:53;16.20;54.90
58993;DHT22;44782;0.000;0.000;2023-04-25T11:12:09;16.20;54.80
58993;DHT22;44782;0.000;0.000;2023-04-25T11:14:27;16.20;54.80
58993;DHT22;44782;0.000;0.000;2023-04-25T11:16:42;16.20;54.70
58993;DHT22;44782;0.000;0.000;2023-04-25T11:18:58;16.30;54.70
58993;DHT22;44782;0.000;0.000;2023-04-25T11:21:14;16.30;54.60
58993;DHT22;44782;0.000;0.000;2023-04-25T11:23:30;16.30;54.60
58993;DHT22;44782;0.000;0.000;2023-04-25T11:25:46;16.30;54.50
58993;DHT22;44782;0.000;0.000;2023-04-25T11:28:02;16.40;54.50
58993;DHT22;44782;0.000;0.000;2023-04-25T11:30:20;16.40;54.50
58993;DHT22;44782;0.000;0.000;2023-04-25T11:32:36;16.40;54.50
58993;DHT22;44782;0.000;0.000;2023-04-25T11:34:52;16.40;54.40
58993;DHT22;44782;0.000;0.000;2023-04-25T11:37:08;16.40;54.40
58993;DHT22;44782;0.000;0.000;2023-04-25T11:39:24;16.40;54.30
58993;DHT22;44782;0.000;0.000;2023-04-25T11:41:41;16.50;54.30
58993;DHT22;44782;0.000;0.000;2023-04-25T11:43:57;16.50;54.30
58993;DHT22;44782;0.000;0.000;2023-04-25T11:46:13;16.50;54.40
58993;DHT22;44782;0.000;0.000;2023-04-25T11:48:39;16.50;54.30
58993;DHT22;44782;0.000;0.000;2023-04-25T11:50:55;16.50;54.10
58993;DHT22;44782;0.000;0.000;2023-04-25T11:53:11;16.50;54.10
58993;DHT22;44782;0.000;0.000;2023-04-25T11:55:30;16.50;54.10
58993;DHT22;44782;0.000;0.000;2023-04-25T11:57:48;16.50;54.10
58993;DHT22;44782;0.000;0.000;2023-04-25T12:00:12;16.50;54.10
58993;DHT22;44782;0.000;0.000;2023-04-25T12:02:29;16.50;54.00
58993;DHT22;44782;0.000;0.000;2023-04-25T12:04:45;16.50;54.00
58993;DHT22;44782;0.000;0.000;2023-04-25T12:07:00;16.50;53.80
58993;DHT22;44782;0.000;0.000;2023-04-25T12:09:27;16.50;54.00
58993;DHT22;44782;0.000;0.000;2023-04-25T12:11:45;16.60;54.00
58993;DHT22;44782;0.000;0.000;2023-04-25T12:14:04;16.50;54.00
58993;DHT22;44782;0.000;0.000;2023-04-25T12:16:22;16.50;54.00
58993;DHT22;44782;0.000;0.000;2023-04-25T12:18:39;16.50;54.00
58993;DHT22;44782;0.000;0.000;2023-04-25T12:20:55;16.50;53.90
58993;DHT22;44782;0.000;0.000;2023-04-25T12:23:10;16.50;53.90
58993;DHT22;44782;0.000;0.000;2023-04-25T12:25:41;16.50;53.90
58993;DHT22;44782;0.000;0.000;2023-04-25T12:28:13;16.60;54.00
58993;DHT22;44782;0.000;0.000;2023-04-25T12:30:29;16.50;53.60
58993;DHT22;44782;0.000;0.000;2023-04-25T12:32:44;16.50;53.80
58993;DHT22;44782;0.000;0.000;2023-04-25T12:35:00;16.50;53.80
58993;DHT22;44782;0.000;0.000;2023-04-25T12:37:16;16.50;53.80
58993;DHT22;44782;0.000;0.000;2023-04-25T12:39:32;16.50;53.80
58993;DHT22;44782;0.000;0.000;2023-04-25T12:41:51;16.50;53.70
58993;DHT22;44782;0.000;0.000;2023-04-25T12:44:09;16.50;53.50
58993;DHT22;44782;0.000;0.000;2023-04-25T12:46:25;16.50;53.70
58993;DHT22;44782;0.000;0.000;2023-04-25T12:48:40;16.50;53.50
58993;DHT22;44782;0.000;0.000;2023-04-25T12:50:57;16.50;53.60
58993;DHT22;44782;0.000;0.000;2023-04-25T12:53:13;16.50;53.50
58993;DHT22;44782;0.000;0.000;2023-04-25T12:55:28;16.50;53.90
58993;DHT22;44782;0.000;0.000;2023-04-25T12:57:45;16.50;53.70
58993;DHT22;44782;0.000;0.000;2023-04-25T13:00:00;16.50;53.60
58993;DHT22;44782;0.000;0.000;2023-04-25T13:02:16;16.50;53.30
58993;DHT22;44782;0.000;0.000;2023-04-25T13:04:31;16.50;53.40
58993;DHT22;44782;0.000;0.000;2023-04-25T13:06:47;16.50;53.30
58993;DHT22;44782;0.000;0.000;2023-04-25T13:09:03;16.50;53.50
58993;DHT22;44782;0.000;0.000;2023-04-25T13:11:19;16.50;53.40
58993;DHT22;44782;0.000;0.000;2023-04-25T13:13:35;16.50;53.10
58993;DHT22;44782;0.000;0.000;2023-04-25T13:15:50;16.50;53.00
58993;DHT22;44782;0.000;0.000;2023-04-25T13:18:06;16.50;53.00
58993;DHT22;44782;0.000;0.000;2023-04-25T13:20:22;16.50;52.90
58993;DHT22;44782;0.000;0.000;2023-04-25T13:22:38;16.50;52.90
58993;DHT22;44782;0.000;0.000;2023-04-25T13:24:54;16.50;52.90
58993;DHT22;44782;0.000;0.000;2023-04-25T13:27:10;16.50;52.90
58993;DHT22;44782;0.000;0.000;2023-04-25T13:29:25;16.50;52.80
58993;DHT22;44782;0.000;0.000;2023-04-25T13:31:41;16.50;52.90
58993;DHT22;44782;0.000;0.000;2023-04-25T13:33:57;16.50;52.90
58993;DHT22;44782;0.000;0.000;2023-04-25T13:36:12;16.50;52.80
58993;DHT22;44782;0.000;0.000;2023-04-25T13:38:28;16.50;52.80
58993;DHT22;44782;0.000;0.000;2023-04-25T13:40:44;16.50;52.80
58993;DHT22;44782;0.000;0.000;2023-04-25T13:42:59;16.50;52.90
58993;DHT22;44782;0.000;0.000;2023-04-25T13:45:15;16.50;52.80
58993;DHT22;44782;0.000;0.000;2023-04-25T13:47:31;16.50;52.80
58993;DHT22;44782;0.000;0.000;2023-04-25T13:49:47;16.50;52.80
58993;DHT22;44782;0.000;0.000;2023-04-25T13:52:02;16.50;52.70
58993;DHT22;44782;0.000;0.000;2023-04-25T13:54:18;16.50;52.70
58993;DHT22;44782;0.000;0.000;2023-04-25T13:56:33;16.50;52.70
58993;DHT22;44782;0.000;0.000;2023-04-25T13:58:53;16.50;52.70
58993;DHT22;44782;0.000;0.000;2023-04-25T14:01:08;16.50;52.60
58993;DHT22;44782;0.000;0.000;2023-04-25T14:03:24;16.50;52.70
58993;DHT22;44782;0.000;0.000;2023-04-25T14:05:40;16.50;52.60
58993;DHT22;44782;0.000;0.000;2023-04-25T14:07:56;16.50;52.70
58993;DHT22;44782;0.000;0.000;2023-04-25T14:10:11;16.50;52.70
58993;DHT22;44782;0.000;0.000;2023-04-25T14:12:27;16.50;52.60
58993;DHT22;44782;0.000;0.000;2023-04-25T14:14:43;16.50;52.70
58993;DHT22;44782;0.000;0.000;2023-04-25T14:16:58;16.50;52.70
58993;DHT22;44782;0.000;0.000;2023-04-25T14:19:14;16.50;52.70
58993;DHT22;44782;0.000;0.000;2023-04-25T14:21:30;16.50;53.10
58993;DHT22;44782;0.000;0.000;2023-04-25T14:23:49;16.50;52.80
58993;DHT22;44782;0.000;0.000;2023-04-25T14:26:05;16.50;52.80
58993;DHT22;44782;0.000;0.000;2023-04-25T14:28:21;16.50;52.70
58993;DHT22;44782;0.000;0.000;2023-04-25T14:30:37;16.50;52.70
58993;DHT22;44782;0.000;0.000;2023-04-25T14:32:53;16.50;52.80
58993;DHT22;44782;0.000;0.000;2023-04-25T14:35:09;16.50;52.80
58993;DHT22;44782;0.000;0.000;2023-04-25T14:37:25;16.50;52.90